Pagina principale
METAR-TAF:

METAR-TAF

Aeroporti :

Emmen, Svizzera

latitudine: 47-05-32N, longitudine: 8-18-16E, altezza: 426 m

Osservazione

Il bollettino è stato emesso 1 ora e 5 minuti fa, alle 19:50 UTC
Vento 4 kt da nord, variando fra nord/nord-ovest e nord-est
Temperature 17°C
Umidità 45%
Pressione 1025 hPa
Visibilità 10 km o più
Nuvoloso ad un'altezza di 6400 ft
Nuvoloso ad un'altezza di 7900 ft

METAR: LSME 221950Z AUTO 01004KT 340V050 9999NDV BKN064 BKN079 17/05 Q1025 RMK

Ora: 22:55 (20:55 UTC)


TAF: mancante

Osservazioni e previsioni meteorologiche di più di 4000 aeroporti (messaggi METAR e TAF).

Le stazioni disponibili sono rappresentate dai dischi gialli e rossi sulla carta.

Puntare il mouse per vedere il nome della stazione.

Clicca sopra per visualizzare le osservazioni e previsioni meteorologiche.

Per cambiare la mappa : fare clic sui pulsanti verdi con una croce nera per ingrandire, il pulsante verde con un trattino per diminuire, o sulla freccia verde per le mappe adiacenti.


METAR-TAF: